Time;durP1;ratioP1;P1;durP2;ratioP2;P2;SDS_P1;SDS_P2;PMS_P1;PMS_P2;Temp;Humidity;BMP_temperature;BMP_pressure;BME280_temperature;BME280_humidity;BME280_pressure;Samples;Min_cycle;Max_cycle;Signal;HPM_P1;HPM_P2
2022/02/27 00:00:47;;;;;;;23.00;21.30;;;;;;;;;;4998211;28;20287;-91
2022/02/27 00:03:15;;;;;;;22.77;20.80;;;;;;;;;;4998477;28;20198;-90
2022/02/27 00:05:42;;;;;;;23.15;21.08;;;;;;;;;;4998022;28;20202;-90
2022/02/27 00:08:10;;;;;;;22.20;20.55;;;;;;;;;;4998200;28;20194;-90
2022/02/27 00:10:37;;;;;;;22.13;20.63;;;;;;;;;;4998349;28;20218;-90
2022/02/27 00:13:06;;;;;;;20.80;19.30;;;;;;;;;;4998190;28;20568;-91
2022/02/27 00:15:34;;;;;;;21.27;19.77;;;;;;;;;;4998280;28;20214;-90
2022/02/27 00:18:02;;;;;;;23.83;21.83;;;;;;;;;;4998181;28;20194;-90
2022/02/27 00:20:29;;;;;;;21.85;19.60;;;;;;;;;;4981077;28;20210;-90
2022/02/27 00:22:56;;;;;;;20.67;19.58;;;;;;;;;;4998080;28;20195;-90
2022/02/27 00:25:24;;;;;;;21.80;19.80;;;;;;;;;;4997890;28;20191;-90
2022/02/27 00:27:53;;;;;;;21.88;20.25;;;;;;;;;;4997611;28;20191;-90
2022/02/27 00:30:22;;;;;;;21.50;20.08;;;;;;;;;;4998008;28;20187;-90
2022/02/27 00:32:49;;;;;;;21.83;19.90;;;;;;;;;;4980691;28;20241;-90
2022/02/27 00:35:17;;;;;;;20.92;18.92;;;;;;;;;;4980712;28;20222;-90
2022/02/27 00:37:45;;;;;;;21.48;19.58;;;;;;;;;;4997727;28;20195;-90
2022/02/27 00:40:13;;;;;;;20.05;18.50;;;;;;;;;;4997368;28;20269;-91
2022/02/27 00:42:41;;;;;;;22.08;20.10;;;;;;;;;;4997321;28;20289;-90
2022/02/27 00:45:09;;;;;;;21.08;19.50;;;;;;;;;;4997926;28;20195;-90
2022/02/27 00:47:38;;;;;;;20.55;19.02;;;;;;;;;;4980280;28;20206;-90
2022/02/27 00:50:06;;;;;;;21.25;19.10;;;;;;;;;;4997689;28;20195;-90
2022/02/27 00:52:33;;;;;;;21.08;19.27;;;;;;;;;;4997201;28;20222;-91
2022/02/27 00:55:01;;;;;;;21.13;19.33;;;;;;;;;;4979200;28;20261;-90
2022/02/27 00:57:29;;;;;;;19.58;18.05;;;;;;;;;;4996688;28;20686;-90
2022/02/27 00:59:57;;;;;;;19.60;17.98;;;;;;;;;;4979780;28;20203;-90
2022/02/27 01:02:25;;;;;;;19.85;18.40;;;;;;;;;;4997459;28;20198;-91
2022/02/27 01:04:54;;;;;;;18.60;17.20;;;;;;;;;;4997368;28;20187;-90
2022/02/27 01:07:21;;;;;;;18.88;17.77;;;;;;;;;;4997323;28;20191;-90
2022/02/27 01:09:49;;;;;;;19.33;17.85;;;;;;;;;;4997114;28;20199;-90
2022/02/27 01:12:16;;;;;;;19.77;17.77;;;;;;;;;;4997270;28;20221;-91
2022/02/27 01:14:44;;;;;;;19.67;18.38;;;;;;;;;;4996930;28;20210;-90
2022/02/27 01:17:11;;;;;;;19.30;17.95;;;;;;;;;;4996674;28;20191;-91
2022/02/27 01:19:39;;;;;;;20.85;19.42;;;;;;;;;;4996854;28;20191;-90
2022/02/27 01:22:08;;;;;;;20.60;18.45;;;;;;;;;;4996788;28;20591;-90
2022/02/27 01:24:36;;;;;;;20.65;18.83;;;;;;;;;;4996617;28;20206;-91
2022/02/27 01:27:03;;;;;;;19.92;18.30;;;;;;;;;;4996727;28;20214;-90
2022/02/27 01:29:31;;;;;;;20.85;18.33;;;;;;;;;;4996790;28;20195;-91
2022/02/27 01:31:58;;;;;;;19.13;17.80;;;;;;;;;;4996958;28;20518;-90
2022/02/27 01:34:26;;;;;;;18.10;17.00;;;;;;;;;;4996750;28;20226;-90
2022/02/27 01:36:53;;;;;;;20.35;18.42;;;;;;;;;;4996655;28;20222;-91
2022/02/27 01:39:22;;;;;;;20.25;18.45;;;;;;;;;;4996617;28;20250;-89
2022/02/27 01:41:49;;;;;;;18.23;16.85;;;;;;;;;;4996324;28;20194;-90
2022/02/27 01:44:17;;;;;;;20.08;18.15;;;;;;;;;;4996542;28;20205;-90
2022/02/27 01:46:57;;;;;;;20.20;18.20;;;;;;;;;;4979094;28;20253;-88
2022/02/27 01:49:25;;;;;;;19.80;17.75;;;;;;;;;;4978972;28;20601;-90
2022/02/27 01:51:52;;;;;;;19.25;17.65;;;;;;;;;;4996545;28;20552;-90
2022/02/27 01:54:20;;;;;;;18.52;17.30;;;;;;;;;;4978892;28;20234;-90
2022/02/27 01:56:49;;;;;;;18.92;17.35;;;;;;;;;;4978751;28;20199;-90
2022/02/27 01:59:16;;;;;;;18.98;17.75;;;;;;;;;;4996100;28;20191;-90
2022/02/27 02:01:43;;;;;;;17.60;16.70;;;;;;;;;;4996632;28;20207;-91
2022/02/27 02:04:11;;;;;;;21.05;18.70;;;;;;;;;;4996383;28;20265;-91
2022/02/27 02:06:39;;;;;;;18.70;17.50;;;;;;;;;;4996052;28;20194;-90
2022/02/27 02:09:06;;;;;;;19.48;18.08;;;;;;;;;;4995953;28;20195;-90
2022/02/27 02:11:34;;;;;;;20.10;18.10;;;;;;;;;;4995825;28;20217;-90
2022/02/27 02:14:04;;;;;;;18.67;16.92;;;;;;;;;;4978675;28;20226;-90
2022/02/27 02:16:39;;;;;;;19.35;17.85;;;;;;;;;;4996077;28;20230;-90
2022/02/27 02:19:07;;;;;;;19.80;18.10;;;;;;;;;;4995944;28;20208;-90
2022/02/27 02:21:39;;;;;;;17.92;16.58;;;;;;;;;;4995678;28;20191;-90
2022/02/27 02:24:07;;;;;;;18.98;17.45;;;;;;;;;;4995894;28;20187;-90
2022/02/27 02:26:36;;;;;;;20.08;17.20;;;;;;;;;;4995467;28;20214;-90
2022/02/27 02:29:04;;;;;;;18.30;16.92;;;;;;;;;;4996071;28;20593;-90
2022/02/27 02:31:33;;;;;;;18.80;17.15;;;;;;;;;;4995527;28;20191;-90
2022/02/27 02:34:03;;;;;;;16.23;15.32;;;;;;;;;;4995517;28;20223;-91
2022/02/27 02:36:31;;;;;;;16.73;15.43;;;;;;;;;;4995432;28;20222;-90
2022/02/27 02:39:00;;;;;;;18.65;17.05;;;;;;;;;;4977742;28;20644;-90
2022/02/27 02:41:28;;;;;;;19.58;17.58;;;;;;;;;;4995290;28;20204;-90
2022/02/27 02:43:55;;;;;;;16.15;15.25;;;;;;;;;;4995623;28;20591;-90
2022/02/27 02:46:23;;;;;;;18.55;16.95;;;;;;;;;;4995056;28;20198;-90
2022/02/27 02:48:50;;;;;;;18.27;16.83;;;;;;;;;;4978874;28;20518;-90
2022/02/27 02:51:18;;;;;;;19.58;17.55;;;;;;;;;;4995399;28;20592;-90
2022/02/27 02:53:46;;;;;;;17.73;16.55;;;;;;;;;;4995171;28;20222;-90
2022/02/27 02:56:15;;;;;;;19.17;17.75;;;;;;;;;;4995577;28;20191;-90
2022/02/27 02:58:43;;;;;;;18.83;17.23;;;;;;;;;;4995163;28;20195;-90
2022/02/27 03:01:11;;;;;;;17.42;16.17;;;;;;;;;;4995368;28;20218;-90
2022/02/27 03:03:39;;;;;;;17.83;16.33;;;;;;;;;;4995604;28;20194;-91
2022/02/27 03:06:08;;;;;;;18.55;16.95;;;;;;;;;;4995083;28;20195;-90
2022/02/27 03:08:36;;;;;;;19.35;17.38;;;;;;;;;;4995317;28;20544;-91
2022/02/27 03:11:03;;;;;;;19.48;17.50;;;;;;;;;;4977845;28;20199;-90
2022/02/27 03:13:32;;;;;;;18.90;17.20;;;;;;;;;;4994996;28;20298;-91
2022/02/27 03:15:59;;;;;;;20.85;17.83;;;;;;;;;;4994942;28;20194;-89
2022/02/27 03:18:27;;;;;;;18.88;16.95;;;;;;;;;;4961242;28;20206;-91
2022/02/27 03:20:56;;;;;;;18.90;17.15;;;;;;;;;;4995273;28;20205;-90
2022/02/27 03:23:23;;;;;;;18.60;17.23;;;;;;;;;;4977937;28;20553;-91
2022/02/27 03:25:51;;;;;;;19.00;17.27;;;;;;;;;;4995011;28;20194;-91
2022/02/27 03:28:18;;;;;;;18.95;17.20;;;;;;;;;;4994750;28;20648;-91
2022/02/27 03:30:47;;;;;;;18.40;17.17;;;;;;;;;;4994798;28;20187;-91
2022/02/27 03:33:14;;;;;;;22.65;17.35;;;;;;;;;;4994996;28;20218;-91
2022/02/27 03:35:41;;;;;;;22.33;17.60;;;;;;;;;;4994746;28;20222;-90
2022/02/27 03:38:09;;;;;;;17.92;16.50;;;;;;;;;;4994713;28;20522;-91
2022/02/27 03:40:36;;;;;;;19.02;17.67;;;;;;;;;;4994575;28;20238;-90
2022/02/27 03:43:04;;;;;;;20.77;18.58;;;;;;;;;;4977266;28;20211;-91
2022/02/27 03:45:31;;;;;;;18.75;17.52;;;;;;;;;;4995057;28;20218;-91
2022/02/27 03:48:01;;;;;;;19.83;18.30;;;;;;;;;;4994977;28;20192;-91
2022/02/27 03:50:28;;;;;;;19.05;17.55;;;;;;;;;;4994965;28;20192;-90
2022/02/27 03:52:56;;;;;;;19.75;18.02;;;;;;;;;;4977689;28;20588;-91
2022/02/27 03:55:23;;;;;;;18.98;17.40;;;;;;;;;;4994473;28;20637;-91
2022/02/27 03:57:50;;;;;;;19.65;17.80;;;;;;;;;;4977575;28;20199;-91
2022/02/27 04:00:18;;;;;;;20.40;18.65;;;;;;;;;;4994745;28;20196;-91
2022/02/27 04:02:46;;;;;;;19.48;18.08;;;;;;;;;;4994539;28;20218;-91
2022/02/27 04:05:16;;;;;;;19.77;18.30;;;;;;;;;;4994714;28;20214;-91
2022/02/27 04:07:43;;;;;;;20.73;19.05;;;;;;;;;;4994652;28;20191;-91
2022/02/27 04:10:11;;;;;;;19.13;17.67;;;;;;;;;;4994742;28;20202;-92
2022/02/27 04:12:39;;;;;;;18.80;17.50;;;;;;;;;;4994498;28;20669;-90
2022/02/27 04:15:07;;;;;;;19.52;18.08;;;;;;;;;;4994413;28;20255;-91
2022/02/27 04:17:35;;;;;;;20.00;18.25;;;;;;;;;;4994580;28;20202;-91
2022/02/27 04:20:02;;;;;;;19.40;17.52;;;;;;;;;;4976893;28;20202;-90
2022/02/27 04:22:31;;;;;;;20.05;18.40;;;;;;;;;;4994476;28;20199;-91
2022/02/27 04:24:58;;;;;;;18.20;17.10;;;;;;;;;;4994453;28;20195;-90
2022/02/27 04:27:26;;;;;;;18.25;16.90;;;;;;;;;;4994541;28;20191;-91
2022/02/27 04:29:53;;;;;;;19.10;17.63;;;;;;;;;;4994523;28;20198;-91
2022/02/27 04:32:21;;;;;;;19.27;17.67;;;;;;;;;;4996848;28;20207;-91
2022/02/27 04:34:48;;;;;;;19.30;17.98;;;;;;;;;;4997824;28;20218;-91
2022/02/27 04:37:18;;;;;;;18.83;16.75;;;;;;;;;;4998018;28;20190;-91
2022/02/27 04:39:47;;;;;;;18.25;17.17;;;;;;;;;;4997647;28;20261;-91
2022/02/27 04:42:14;;;;;;;19.27;18.25;;;;;;;;;;4997866;28;20191;-91
2022/02/27 04:44:42;;;;;;;22.92;17.67;;;;;;;;;;4997715;28;20187;-91
2022/02/27 04:47:10;;;;;;;18.00;16.90;;;;;;;;;;4997674;28;20218;-91
2022/02/27 04:49:37;;;;;;;17.00;16.02;;;;;;;;;;4997590;28;20600;-92
2022/02/27 04:52:05;;;;;;;17.88;16.80;;;;;;;;;;4997293;28;20191;-91
2022/02/27 04:54:32;;;;;;;17.27;16.27;;;;;;;;;;4980000;28;20273;-92
2022/02/27 04:57:01;;;;;;;18.23;16.80;;;;;;;;;;4997673;28;20214;-91
2022/02/27 04:59:29;;;;;;;18.10;16.70;;;;;;;;;;4997484;28;20187;-91
2022/02/27 05:01:56;;;;;;;18.83;17.52;;;;;;;;;;4997147;28;20198;-91
2022/02/27 05:04:23;;;;;;;18.30;16.98;;;;;;;;;;4979877;28;20277;-91
2022/02/27 05:06:51;;;;;;;17.40;15.98;;;;;;;;;;4997519;28;20237;-91
2022/02/27 05:09:19;;;;;;;17.60;16.08;;;;;;;;;;4979852;28;20198;-91
2022/02/27 05:11:47;;;;;;;18.08;16.40;;;;;;;;;;4997171;28;20241;-91
2022/02/27 05:14:17;;;;;;;17.52;16.17;;;;;;;;;;4997027;28;20273;-91
2022/02/27 05:16:44;;;;;;;17.13;15.88;;;;;;;;;;4979614;28;20198;-91
2022/02/27 05:19:13;;;;;;;18.80;17.35;;;;;;;;;;4979664;28;20226;-91
2022/02/27 05:21:40;;;;;;;18.15;16.77;;;;;;;;;;4963688;28;20198;-91
2022/02/27 05:24:08;;;;;;;16.33;15.45;;;;;;;;;;4996881;28;20199;-91
2022/02/27 05:26:36;;;;;;;18.40;16.52;;;;;;;;;;4979412;28;20237;-91
2022/02/27 05:29:04;;;;;;;16.20;15.20;;;;;;;;;;4997283;28;20659;-91
2022/02/27 05:31:33;;;;;;;19.23;16.65;;;;;;;;;;4996302;28;20229;-91
2022/02/27 05:34:00;;;;;;;17.80;16.13;;;;;;;;;;4996681;28;20207;-90
2022/02/27 05:36:27;;;;;;;17.10;15.88;;;;;;;;;;4979047;28;20557;-91
2022/02/27 05:38:55;;;;;;;18.38;16.67;;;;;;;;;;4996380;28;20187;-91
2022/02/27 05:41:22;;;;;;;16.77;15.80;;;;;;;;;;4979312;28;20195;-92
2022/02/27 05:43:50;;;;;;;17.95;16.80;;;;;;;;;;4996787;28;20198;-91
2022/02/27 05:46:17;;;;;;;17.48;16.15;;;;;;;;;;4979108;28;20257;-91
2022/02/27 05:48:46;;;;;;;16.85;15.75;;;;;;;;;;4996385;28;20198;-91
2022/02/27 05:51:14;;;;;;;16.50;15.50;;;;;;;;;;4978904;28;20229;-91
2022/02/27 05:53:41;;;;;;;17.27;16.30;;;;;;;;;;4996014;28;20261;-91
2022/02/27 05:56:09;;;;;;;16.63;15.70;;;;;;;;;;4996593;28;20277;-91
2022/02/27 05:58:37;;;;;;;16.88;15.95;;;;;;;;;;4996584;28;20202;-91
2022/02/27 06:01:04;;;;;;;17.40;16.35;;;;;;;;;;4978740;28;20207;-91
2022/02/27 06:03:32;;;;;;;17.63;16.08;;;;;;;;;;4996488;28;20190;-91
2022/02/27 06:06:00;;;;;;;19.27;17.98;;;;;;;;;;4996230;28;20195;-91
2022/02/27 06:08:28;;;;;;;17.75;16.70;;;;;;;;;;4996153;28;20217;-91
2022/02/27 06:10:55;;;;;;;17.42;16.08;;;;;;;;;;4978680;28;20203;-92
2022/02/27 06:13:23;;;;;;;17.83;16.83;;;;;;;;;;4996164;28;20206;-91
2022/02/27 06:15:50;;;;;;;16.95;15.48;;;;;;;;;;4996167;28;20226;-91
2022/02/27 06:18:18;;;;;;;16.45;15.45;;;;;;;;;;4995894;28;20657;-91
2022/02/27 06:20:45;;;;;;;17.13;16.23;;;;;;;;;;4978547;28;20210;-91
2022/02/27 06:23:14;;;;;;;16.38;15.57;;;;;;;;;;4996386;28;20190;-96
2022/02/27 06:25:41;;;;;;;16.88;15.80;;;;;;;;;;4996404;28;20201;-96
2022/02/27 06:28:09;;;;;;;17.45;16.45;;;;;;;;;;4995975;28;20191;-94
2022/02/27 06:30:36;;;;;;;16.88;15.98;;;;;;;;;;4995692;28;20367;-94
2022/02/27 06:33:04;;;;;;;17.15;16.23;;;;;;;;;;4995903;28;20195;-94
2022/02/27 06:35:31;;;;;;;18.02;16.80;;;;;;;;;;4995592;28;20254;-94
2022/02/27 06:37:59;;;;;;;17.67;16.67;;;;;;;;;;4995638;28;20191;-94
2022/02/27 06:40:28;;;;;;;18.92;17.33;;;;;;;;;;4995295;28;20230;-95
2022/02/27 06:42:55;;;;;;;16.75;15.82;;;;;;;;;;4995763;28;20629;-94
2022/02/27 06:45:22;;;;;;;17.58;16.58;;;;;;;;;;4995815;28;20195;-94
2022/02/27 06:47:50;;;;;;;19.73;18.52;;;;;;;;;;4995445;28;20202;-93
2022/02/27 06:50:17;;;;;;;18.33;17.23;;;;;;;;;;4995693;28;20549;-93
2022/02/27 06:52:45;;;;;;;18.90;17.70;;;;;;;;;;4994706;28;20218;-94
2022/02/27 06:55:15;;;;;;;17.42;16.38;;;;;;;;;;4994917;28;20226;-94
2022/02/27 06:57:44;;;;;;;18.52;17.13;;;;;;;;;;4978527;28;20202;-94
2022/02/27 07:00:12;;;;;;;20.13;18.38;;;;;;;;;;4994983;28;20191;-93
2022/02/27 07:02:41;;;;;;;17.67;16.33;;;;;;;;;;4995452;28;20195;-92
2022/02/27 07:05:09;;;;;;;18.58;17.35;;;;;;;;;;4996316;28;20207;-92
2022/02/27 07:07:36;;;;;;;19.20;17.60;;;;;;;;;;4994980;28;20249;-96
2022/02/27 07:10:04;;;;;;;18.33;17.10;;;;;;;;;;4995438;28;20187;-95
2022/02/27 07:12:32;;;;;;;18.85;17.40;;;;;;;;;;4995465;28;20194;-95
2022/02/27 07:15:01;;;;;;;18.75;16.90;;;;;;;;;;4977811;28;20226;-86
2022/02/27 07:17:28;;;;;;;18.73;17.23;;;;;;;;;;4995046;28;20190;-92
2022/02/27 07:19:56;;;;;;;17.55;16.17;;;;;;;;;;4994860;28;20210;-92
2022/02/27 07:22:24;;;;;;;18.30;17.08;;;;;;;;;;4977931;28;20195;-93
2022/02/27 07:24:52;;;;;;;18.10;16.95;;;;;;;;;;4995049;28;20541;-93
2022/02/27 07:27:19;;;;;;;15.98;15.15;;;;;;;;;;4995116;28;20187;-92
2022/02/27 07:29:46;;;;;;;18.73;17.25;;;;;;;;;;4994498;28;20790;-92
2022/02/27 07:32:15;;;;;;;18.15;17.05;;;;;;;;;;4977671;28;20187;-92
2022/02/27 07:34:43;;;;;;;17.80;16.52;;;;;;;;;;4994987;28;20231;-91
2022/02/27 07:37:11;;;;;;;17.48;16.35;;;;;;;;;;4961642;28;20203;-92
2022/02/27 07:39:38;;;;;;;18.63;17.25;;;;;;;;;;4994773;28;20762;-89
2022/02/27 07:42:06;;;;;;;18.27;16.85;;;;;;;;;;4977472;28;20207;-91
2022/02/27 07:44:33;;;;;;;18.73;17.08;;;;;;;;;;4977336;28;20608;-91
2022/02/27 07:47:01;;;;;;;17.85;16.80;;;;;;;;;;4994488;28;20191;-91
2022/02/27 07:49:30;;;;;;;17.13;15.77;;;;;;;;;;4994350;28;20703;-92
2022/02/27 07:51:58;;;;;;;18.67;17.17;;;;;;;;;;4994633;28;20206;-93
2022/02/27 07:54:25;;;;;;;18.65;17.02;;;;;;;;;;4976964;28;20281;-91
2022/02/27 07:56:53;;;;;;;17.90;16.85;;;;;;;;;;4994428;28;20191;-92
2022/02/27 07:59:20;;;;;;;19.98;18.48;;;;;;;;;;4994363;28;20191;-91
2022/02/27 08:01:48;;;;;;;19.42;18.13;;;;;;;;;;4977196;28;20618;-92
2022/02/27 08:04:16;;;;;;;19.55;18.10;;;;;;;;;;4961437;28;20202;-92
2022/02/27 08:06:45;;;;;;;19.63;18.08;;;;;;;;;;4980713;28;20207;-93
2022/02/27 08:09:12;;;;;;;18.65;17.55;;;;;;;;;;4998416;28;20195;-93
2022/02/27 08:11:40;;;;;;;19.27;17.90;;;;;;;;;;4980832;28;20207;-91
2022/02/27 08:14:07;;;;;;;19.60;17.90;;;;;;;;;;4998496;28;20199;-91
2022/02/27 08:16:35;;;;;;;19.05;17.75;;;;;;;;;;4981046;28;20226;-93
2022/02/27 08:19:02;;;;;;;20.30;18.52;;;;;;;;;;4980783;28;20205;-90
2022/02/27 08:21:30;;;;;;;20.40;18.75;;;;;;;;;;4997804;28;20269;-91
2022/02/27 08:23:59;;;;;;;20.98;19.08;;;;;;;;;;4980994;28;20195;-91
2022/02/27 08:26:26;;;;;;;19.60;17.88;;;;;;;;;;4980497;28;20191;-91
2022/02/27 08:28:53;;;;;;;23.25;21.00;;;;;;;;;;4998142;28;20253;-91
2022/02/27 08:31:21;;;;;;;20.75;19.45;;;;;;;;;;4981010;28;20253;-92
2022/02/27 08:33:48;;;;;;;30.30;27.20;;;;;;;;;;4998033;28;20191;-92
2022/02/27 08:36:17;;;;;;;22.30;20.55;;;;;;;;;;4997548;28;20243;-92
2022/02/27 08:38:47;;;;;;;23.85;22.08;;;;;;;;;;4997274;28;20295;-93
2022/02/27 08:41:16;;;;;;;19.58;18.02;;;;;;;;;;4997261;28;20241;-93
2022/02/27 08:43:44;;;;;;;19.17;17.83;;;;;;;;;;4997685;28;20198;-91
2022/02/27 08:46:11;;;;;;;19.17;17.83;;;;;;;;;;4997812;28;20553;-91
2022/02/27 08:48:38;;;;;;;22.08;20.55;;;;;;;;;;4979982;28;20253;-92
2022/02/27 08:51:06;;;;;;;19.65;18.52;;;;;;;;;;4997288;28;20198;-89
2022/02/27 08:53:34;;;;;;;19.40;18.20;;;;;;;;;;4980201;28;20210;-90
2022/02/27 08:56:01;;;;;;;22.98;21.35;;;;;;;;;;4980083;28;20273;-89
2022/02/27 08:58:30;;;;;;;22.40;20.60;;;;;;;;;;4997319;28;20644;-88
2022/02/27 09:00:58;;;;;;;23.77;21.38;;;;;;;;;;4997391;28;20197;-92
2022/02/27 09:03:27;;;;;;;19.70;18.35;;;;;;;;;;4964311;28;20612;-90
2022/02/27 09:05:55;;;;;;;22.38;20.88;;;;;;;;;;4979854;28;20199;-90
2022/02/27 09:08:23;;;;;;;21.45;20.05;;;;;;;;;;4997036;28;20644;-91
2022/02/27 09:10:50;;;;;;;21.52;20.17;;;;;;;;;;4996875;28;20192;-89
2022/02/27 09:13:18;;;;;;;20.10;18.77;;;;;;;;;;4980383;28;20218;-96
2022/02/27 09:15:47;;;;;;;21.55;19.92;;;;;;;;;;4996818;28;20218;-89
2022/02/27 09:18:14;;;;;;;21.02;19.73;;;;;;;;;;4995720;28;20191;-89
2022/02/27 09:20:44;;;;;;;20.33;19.05;;;;;;;;;;4997150;28;20207;-89
2022/02/27 09:23:12;;;;;;;21.17;19.70;;;;;;;;;;4980140;28;20191;-90
2022/02/27 09:25:39;;;;;;;21.75;20.35;;;;;;;;;;4979682;28;20203;-88
2022/02/27 09:28:12;;;;;;;21.77;19.90;;;;;;;;;;4997479;28;20202;-93
2022/02/27 09:30:39;;;;;;;20.92;19.73;;;;;;;;;;4997399;28;20203;-88
2022/02/27 09:33:08;;;;;;;19.70;18.40;;;;;;;;;;4996889;28;20195;-91
2022/02/27 09:35:36;;;;;;;20.95;19.42;;;;;;;;;;4996511;28;20234;-89
2022/02/27 09:38:04;;;;;;;23.40;21.85;;;;;;;;;;4996939;28;20245;-89
2022/02/27 09:40:31;;;;;;;20.27;18.73;;;;;;;;;;4996038;28;20592;-88
2022/02/27 09:42:59;;;;;;;23.38;21.70;;;;;;;;;;4996866;28;20187;-90
2022/02/27 09:45:27;;;;;;;22.08;20.60;;;;;;;;;;4997501;28;20194;-96
2022/02/27 09:47:55;;;;;;;19.83;18.63;;;;;;;;;;4979554;28;20592;-86
2022/02/27 09:50:24;;;;;;;20.05;18.92;;;;;;;;;;4996512;28;20716;-90
2022/02/27 09:52:52;;;;;;;22.00;20.50;;;;;;;;;;4996324;28;20198;-90
2022/02/27 09:55:20;;;;;;;22.23;20.85;;;;;;;;;;4996156;28;20211;-89
2022/02/27 09:57:49;;;;;;;22.15;20.75;;;;;;;;;;4978994;28;20261;-91
2022/02/27 10:00:18;;;;;;;21.33;20.02;;;;;;;;;;4996375;28;20191;-90
2022/02/27 10:03:05;;;;;;;22.95;20.98;;;;;;;;;;4996323;28;20214;-90
2022/02/27 10:05:34;;;;;;;21.17;19.77;;;;;;;;;;4996426;28;20569;-90
2022/02/27 10:08:02;;;;;;;22.45;20.92;;;;;;;;;;4996067;28;20195;-90
2022/02/27 10:10:30;;;;;;;22.75;21.00;;;;;;;;;;4996247;28;20591;-91
2022/02/27 10:12:57;;;;;;;21.55;20.15;;;;;;;;;;4996175;28;20190;-90
2022/02/27 10:15:25;;;;;;;21.90;20.58;;;;;;;;;;4995995;28;20226;-90
2022/02/27 10:17:53;;;;;;;22.38;21.08;;;;;;;;;;4995615;28;20206;-90
2022/02/27 10:20:22;;;;;;;22.05;20.52;;;;;;;;;;4995963;28;20318;-90
2022/02/27 10:22:52;;;;;;;21.38;20.17;;;;;;;;;;4995660;28;20202;-91
2022/02/27 10:25:21;;;;;;;21.70;20.20;;;;;;;;;;4995593;28;20195;-91
2022/02/27 10:27:49;;;;;;;21.05;19.75;;;;;;;;;;4995567;28;20191;-91
2022/02/27 10:30:22;;;;;;;21.52;20.20;;;;;;;;;;4995596;28;20191;-91
2022/02/27 10:32:50;;;;;;;22.40;21.10;;;;;;;;;;4995608;28;20191;-90
2022/02/27 10:35:40;;;;;;;22.90;21.27;;;;;;;;;;4995520;28;20680;-90
2022/02/27 10:38:10;;;;;;;21.25;19.95;;;;;;;;;;4995512;28;20595;-87
2022/02/27 10:40:38;;;;;;;21.70;20.40;;;;;;;;;;4995560;28;20230;-89
2022/02/27 10:43:09;;;;;;;20.85;19.65;;;;;;;;;;4995441;28;20191;-95
2022/02/27 10:45:36;;;;;;;21.67;20.27;;;;;;;;;;4995800;28;20594;-90
2022/02/27 10:48:06;;;;;;;20.00;18.90;;;;;;;;;;4995232;28;20194;-91
2022/02/27 10:50:34;;;;;;;21.67;20.30;;;;;;;;;;4995146;28;20203;-89
2022/02/27 10:53:01;;;;;;;21.80;20.42;;;;;;;;;;4996098;28;20191;-89
2022/02/27 10:55:32;;;;;;;21.48;20.10;;;;;;;;;;4995152;28;20230;-88
2022/02/27 10:58:00;;;;;;;22.88;21.23;;;;;;;;;;4995571;28;20198;-84
2022/02/27 11:00:29;;;;;;;22.55;20.85;;;;;;;;;;4995566;28;20206;-94
2022/02/27 11:02:58;;;;;;;22.20;20.90;;;;;;;;;;4995385;28;20199;-93
2022/02/27 11:05:26;;;;;;;21.52;20.23;;;;;;;;;;4995388;28;20198;-88
2022/02/27 11:07:58;;;;;;;21.30;20.05;;;;;;;;;;5007023;28;20194;-96
2022/02/27 11:10:26;;;;;;;21.80;20.30;;;;;;;;;;5003165;28;20191;-95
2022/02/27 11:12:55;;;;;;;21.65;20.27;;;;;;;;;;4996965;28;20191;-90
2022/02/27 11:15:23;;;;;;;22.23;20.75;;;;;;;;;;4994780;28;20648;-91
2022/02/27 11:17:51;;;;;;;27.83;25.65;;;;;;;;;;4995454;28;20218;-96
2022/02/27 11:20:21;;;;;;;23.90;22.40;;;;;;;;;;4995107;28;20727;-94
2022/02/27 11:22:48;;;;;;;23.25;21.67;;;;;;;;;;4995072;28;20668;-94
2022/02/27 11:25:16;;;;;;;22.33;20.55;;;;;;;;;;4995343;28;20610;-94
2022/02/27 11:27:45;;;;;;;22.25;20.85;;;;;;;;;;4994855;28;20195;-89
2022/02/27 11:30:14;;;;;;;22.42;20.75;;;;;;;;;;4994876;28;20195;-93
2022/02/27 11:32:49;;;;;;;21.17;19.90;;;;;;;;;;4995083;28;20592;-94
2022/02/27 11:35:41;;;;;;;21.58;20.15;;;;;;;;;;4994568;28;20272;-94
2022/02/27 11:38:09;;;;;;;22.00;20.58;;;;;;;;;;4963685;28;20210;-93
2022/02/27 11:40:44;;;;;;;21.70;20.20;;;;;;;;;;4997082;28;20233;-95
2022/02/27 11:43:12;;;;;;;21.60;20.30;;;;;;;;;;4999241;28;20190;-96
2022/02/27 11:46:02;;;;;;;22.42;20.98;;;;;;;;;;4998696;28;20659;-96
2022/02/27 11:48:47;;;;;;;21.80;20.50;;;;;;;;;;4999079;28;20195;-96
2022/02/27 11:51:40;;;;;;;22.20;20.90;;;;;;;;;;4989232;28;20203;-95
2022/02/27 11:54:09;;;;;;;22.60;21.10;;;;;;;;;;5000611;28;20218;-96
2022/02/27 11:56:38;;;;;;;23.30;21.90;;;;;;;;;;5002069;28;20211;-96
2022/02/27 11:59:05;;;;;;;22.88;21.38;;;;;;;;;;5001828;28;20226;-96
2022/02/27 12:01:55;;;;;;;23.10;21.50;;;;;;;;;;4999829;28;20191;-96
2022/02/27 12:04:29;;;;;;;22.40;21.00;;;;;;;;;;4999930;28;20199;-96
2022/02/27 12:07:00;;;;;;;21.77;20.38;;;;;;;;;;5001573;28;20219;-96
2022/02/27 12:09:28;;;;;;;21.75;20.30;;;;;;;;;;5000158;28;20198;-95
2022/02/27 12:11:55;;;;;;;22.42;20.98;;;;;;;;;;5000419;28;20198;-95
2022/02/27 12:14:23;;;;;;;21.38;20.17;;;;;;;;;;5001276;28;20287;-96
2022/02/27 12:16:52;;;;;;;21.15;19.95;;;;;;;;;;5000118;28;20218;-96
2022/02/27 12:19:23;;;;;;;22.00;20.45;;;;;;;;;;4999259;28;20191;-96
2022/02/27 12:21:52;;;;;;;22.70;21.40;;;;;;;;;;4999544;28;20191;-96
2022/02/27 12:24:25;;;;;;;21.98;20.75;;;;;;;;;;4999430;28;20630;-96
2022/02/27 12:26:53;;;;;;;22.92;21.40;;;;;;;;;;4998747;28;20692;-90
2022/02/27 12:29:29;;;;;;;21.70;20.30;;;;;;;;;;4998263;28;20191;-94
2022/02/27 12:32:06;;;;;;;24.13;22.20;;;;;;;;;;4998246;28;20187;-87
2022/02/27 12:34:35;;;;;;;23.50;21.98;;;;;;;;;;4997792;28;20286;-88
2022/02/27 12:37:03;;;;;;;21.90;20.55;;;;;;;;;;4997732;28;20214;-87
2022/02/27 12:39:32;;;;;;;23.30;21.48;;;;;;;;;;4997595;28;20246;-95
2022/02/27 12:41:59;;;;;;;26.50;24.65;;;;;;;;;;4997797;28;20198;-96
2022/02/27 12:44:28;;;;;;;23.42;21.95;;;;;;;;;;5441181;23;20247;-85
2022/02/27 12:46:55;;;;;;;22.42;20.98;;;;;;;;;;4997811;28;20201;-87
2022/02/27 12:52:17;;;;;;;23.95;22.30;;;;;;;;;;4996000;28;20647;-87
2022/02/27 12:54:45;;;;;;;23.73;21.83;;;;;;;;;;4997351;28;20193;-88
2022/02/27 12:57:13;;;;;;;23.73;22.23;;;;;;;;;;4997411;28;20698;-87
2022/02/27 12:59:41;;;;;;;25.40;23.58;;;;;;;;;;4997459;28;20202;-87
2022/02/27 13:02:10;;;;;;;23.63;22.05;;;;;;;;;;4979882;28;20253;-87
2022/02/27 13:04:39;;;;;;;22.75;21.45;;;;;;;;;;4997506;28;20195;-87
2022/02/27 13:07:08;;;;;;;22.60;20.88;;;;;;;;;;4995312;28;20195;-85
2022/02/27 13:09:36;;;;;;;23.80;22.00;;;;;;;;;;4980336;28;20222;-86
2022/02/27 13:12:09;;;;;;;22.30;20.80;;;;;;;;;;4997286;28;20195;-87
2022/02/27 13:14:36;;;;;;;24.05;22.65;;;;;;;;;;4996920;28;20215;-85
2022/02/27 13:17:04;;;;;;;28.38;26.25;;;;;;;;;;4996703;28;20226;-83
2022/02/27 13:19:32;;;;;;;22.65;21.15;;;;;;;;;;4997279;28;20230;-85
2022/02/27 13:22:01;;;;;;;23.38;21.63;;;;;;;;;;4997080;28;20206;-84
2022/02/27 13:24:32;;;;;;;24.30;22.55;;;;;;;;;;4979822;28;20203;-84
2022/02/27 13:27:04;;;;;;;25.02;23.23;;;;;;;;;;4997335;28;20518;-83
2022/02/27 13:29:32;;;;;;;24.17;22.67;;;;;;;;;;4996641;28;20195;-84
2022/02/27 13:31:59;;;;;;;23.05;21.48;;;;;;;;;;4996573;28;20424;-84
2022/02/27 13:34:27;;;;;;;23.17;21.48;;;;;;;;;;4997003;28;20194;-82
2022/02/27 13:36:54;;;;;;;23.33;21.93;;;;;;;;;;4996629;28;20269;-84
2022/02/27 13:39:37;;;;;;;22.40;21.20;;;;;;;;;;4996902;28;20438;-84
2022/02/27 13:42:05;;;;;;;23.10;21.40;;;;;;;;;;4996671;28;20202;-83
2022/02/27 13:44:32;;;;;;;24.10;22.33;;;;;;;;;;4995839;28;20572;-83
2022/02/27 13:47:00;;;;;;;23.40;21.85;;;;;;;;;;4996367;28;20195;-83
2022/02/27 13:49:27;;;;;;;23.65;22.15;;;;;;;;;;4979479;28;20194;-84
2022/02/27 13:51:54;;;;;;;23.00;21.60;;;;;;;;;;4996501;28;20198;-83
2022/02/27 13:54:23;;;;;;;22.60;21.30;;;;;;;;;;4996505;28;20202;-84
2022/02/27 13:57:01;;;;;;;23.70;22.30;;;;;;;;;;4996025;28;20239;-83
2022/02/27 13:59:38;;;;;;;23.53;22.10;;;;;;;;;;4996421;28;20226;-84
2022/02/27 14:02:05;;;;;;;24.00;22.60;;;;;;;;;;4996111;28;20473;-82
2022/02/27 14:04:33;;;;;;;24.13;22.52;;;;;;;;;;4995826;28;20274;-83
2022/02/27 14:07:00;;;;;;;23.75;22.30;;;;;;;;;;4996423;28;20194;-82
2022/02/27 14:09:27;;;;;;;23.55;22.15;;;;;;;;;;4996351;28;20195;-84
2022/02/27 14:12:05;;;;;;;24.92;23.38;;;;;;;;;;4995900;28;20206;-84
2022/02/27 14:14:33;;;;;;;21.60;20.25;;;;;;;;;;4995580;28;20190;-85
2022/02/27 14:17:18;;;;;;;26.17;24.27;;;;;;;;;;4996113;28;20230;-85
2022/02/27 14:19:45;;;;;;;23.50;21.77;;;;;;;;;;4978749;28;20209;-84
2022/02/27 14:22:13;;;;;;;23.13;21.65;;;;;;;;;;4995996;28;20191;-84
2022/02/27 14:24:45;;;;;;;22.50;21.10;;;;;;;;;;4996026;28;20198;-84
2022/02/27 14:27:16;;;;;;;24.08;22.58;;;;;;;;;;4995843;28;20191;-84